createdAt,value
2017-08-24T00:00:57.962Z,7.00
2017-08-24T00:03:25.498Z,8.53
2017-08-24T00:05:53.071Z,6.03
2017-08-24T00:08:20.599Z,5.90
2017-08-24T00:10:48.919Z,11.63
2017-08-24T00:13:16.455Z,6.63
2017-08-24T00:15:44.034Z,8.40
2017-08-24T00:18:11.571Z,6.40
2017-08-24T00:20:39.102Z,7.40
2017-08-24T00:23:06.622Z,5.73
2017-08-24T00:25:34.155Z,8.60
2017-08-24T00:28:01.688Z,8.90
2017-08-24T00:30:29.220Z,7.40
2017-08-24T00:32:56.751Z,9.20
2017-08-24T00:35:24.283Z,10.47
2017-08-24T00:37:52.578Z,6.70
2017-08-24T00:40:20.106Z,11.43
2017-08-24T00:42:47.814Z,8.23
2017-08-24T00:45:15.379Z,12.43
2017-08-24T00:47:42.931Z,5.47
2017-08-24T00:50:10.454Z,7.80
2017-08-24T00:52:38.019Z,10.37
2017-08-24T00:55:05.555Z,11.50
2017-08-24T00:57:33.083Z,6.13
2017-08-24T01:00:00.618Z,10.33
2017-08-24T01:02:28.143Z,7.67
2017-08-24T01:04:55.670Z,7.83
2017-08-24T01:07:23.199Z,19.00
2017-08-24T01:09:50.759Z,6.67
2017-08-24T01:12:18.296Z,10.37
2017-08-24T01:14:46.611Z,7.00
2017-08-24T01:17:14.148Z,10.13
2017-08-24T01:19:41.728Z,12.67
2017-08-24T01:22:09.258Z,15.90
2017-08-24T01:24:36.787Z,8.23
2017-08-24T01:27:04.323Z,15.87
2017-08-24T01:29:31.854Z,6.43
2017-08-24T01:31:59.446Z,7.63
2017-08-24T01:34:26.970Z,6.70
2017-08-24T01:36:55.382Z,6.90
2017-08-24T01:39:22.917Z,14.23
2017-08-24T01:41:50.478Z,9.23
2017-08-24T01:44:18.078Z,5.80
2017-08-24T01:46:45.738Z,6.73
2017-08-24T01:49:13.275Z,6.30
2017-08-24T01:54:13.350Z,10.40
2017-08-24T01:56:40.886Z,6.60
2017-08-24T01:59:08.450Z,6.60
2017-08-24T02:01:36.078Z,7.53
2017-08-24T02:04:03.639Z,5.77
2017-08-24T02:06:31.161Z,5.87
2017-08-24T02:08:58.710Z,7.60
2017-08-24T02:11:26.234Z,7.60
2017-08-24T02:13:53.782Z,7.27
2017-08-24T02:16:21.310Z,6.20
2017-08-24T02:18:48.867Z,7.90
2017-08-24T02:21:16.405Z,6.00
2017-08-24T02:23:43.955Z,6.07
2017-08-24T02:26:11.483Z,10.57
2017-08-24T02:28:39.034Z,6.37
2017-08-24T02:31:06.569Z,6.67
2017-08-24T02:33:34.150Z,8.50
2017-08-24T02:36:01.674Z,7.80
2017-08-24T02:38:29.199Z,6.07
2017-08-24T02:40:56.726Z,6.20
2017-08-24T02:43:24.250Z,9.53
2017-08-24T02:45:51.778Z,7.90
2017-08-24T02:48:19.303Z,9.30
2017-08-24T02:50:46.863Z,9.90
2017-08-24T02:53:14.390Z,6.53
2017-08-24T02:55:41.947Z,5.67
2017-08-24T02:58:09.571Z,10.00
2017-08-24T03:00:37.134Z,11.83
2017-08-24T03:03:04.658Z,8.73
2017-08-24T03:05:32.250Z,6.40
2017-08-24T03:07:59.769Z,15.30
2017-08-24T03:10:27.315Z,9.50
2017-08-24T03:12:54.939Z,9.97
2017-08-24T03:15:22.539Z,8.87
2017-08-24T03:17:50.163Z,13.53
2017-08-24T03:20:17.692Z,10.83
2017-08-24T03:22:45.210Z,6.27
2017-08-24T03:25:12.735Z,9.00
2017-08-24T03:27:40.286Z,8.40
2017-08-24T03:30:07.826Z,10.40
2017-08-24T03:32:35.383Z,11.03
2017-08-24T03:35:02.914Z,8.70
2017-08-24T03:37:30.543Z,7.07
2017-08-24T03:39:58.070Z,7.13
2017-08-24T03:42:25.623Z,6.60
2017-08-24T03:44:53.155Z,9.43
2017-08-24T03:47:20.734Z,5.70
2017-08-24T03:49:48.270Z,7.57
2017-08-24T03:52:15.852Z,6.17
2017-08-24T03:54:43.386Z,10.53
2017-08-24T03:57:10.913Z,10.03
2017-08-24T03:59:38.437Z,11.33
2017-08-24T04:02:05.966Z,13.67
2017-08-24T04:04:33.502Z,11.90
2017-08-24T04:07:01.063Z,13.90
2017-08-24T04:18:01.579Z,10.83
2017-08-24T04:20:29.131Z,12.03
2017-08-24T04:22:56.662Z,9.03
2017-08-24T04:25:24.202Z,9.73
2017-08-24T04:27:51.731Z,9.30
2017-08-24T04:30:19.299Z,16.47
2017-08-24T04:32:46.872Z,9.10
2017-08-24T04:35:14.404Z,10.80
2017-08-24T04:37:41.943Z,10.07
2017-08-24T04:40:09.491Z,12.73
2017-08-24T04:42:37.022Z,25.80
2017-08-24T04:45:04.575Z,8.93
2017-08-24T04:47:32.102Z,8.90
2017-08-24T04:49:59.640Z,9.20
2017-08-24T04:52:27.170Z,8.67
2017-08-24T04:54:54.695Z,9.93
2017-08-24T04:57:22.239Z,10.03
2017-08-24T04:59:49.767Z,10.27
2017-08-24T05:02:17.322Z,12.43
2017-08-24T05:04:44.858Z,16.40
2017-08-24T05:07:12.514Z,10.23
2017-08-24T05:09:40.038Z,8.27
2017-08-24T05:12:07.559Z,8.60
2017-08-24T05:14:35.091Z,9.00
2017-08-24T05:17:02.623Z,9.90
2017-08-24T05:19:31.309Z,14.40
2017-08-24T05:21:58.854Z,9.77
2017-08-24T05:24:26.382Z,8.93
2017-08-24T05:26:54.013Z,9.53
2017-08-24T05:29:21.538Z,12.50
2017-08-24T05:31:49.848Z,9.73
2017-08-24T05:34:17.419Z,11.33
2017-08-24T05:36:44.956Z,14.53
2017-08-24T05:39:12.528Z,10.50
2017-08-24T05:41:40.066Z,12.63
2017-08-24T05:44:08.362Z,10.87
2017-08-24T05:46:35.953Z,16.50
2017-08-24T05:49:03.482Z,11.60
2017-08-24T05:51:31.014Z,12.13
2017-08-24T05:53:58.551Z,10.60
2017-08-24T05:56:26.191Z,16.27
2017-08-24T05:58:53.722Z,33.83
2017-08-24T06:01:21.262Z,31.47
2017-08-24T06:03:48.794Z,11.50
2017-08-24T06:06:16.360Z,11.13
2017-08-24T06:08:43.896Z,17.70
2017-08-24T06:11:11.555Z,17.13
2017-08-24T06:13:39.091Z,21.23
2017-08-24T06:16:06.665Z,21.50
2017-08-24T06:18:34.203Z,18.47
2017-08-24T06:21:01.738Z,28.00
2017-08-24T06:23:29.271Z,31.70
2017-08-24T06:25:56.910Z,26.20
2017-08-24T06:28:24.450Z,36.60
2017-08-24T06:30:51.983Z,27.63
2017-08-24T06:33:19.546Z,31.73
2017-08-24T06:35:47.078Z,29.77
2017-08-24T06:38:14.716Z,34.77
2017-08-24T06:40:42.258Z,37.00
2017-08-24T06:43:09.814Z,35.57
2017-08-24T06:45:37.346Z,36.70
2017-08-24T06:48:04.926Z,38.63
2017-08-24T06:50:32.462Z,41.83
2017-08-24T06:53:00.083Z,35.00
2017-08-24T06:55:27.646Z,35.70
2017-08-24T06:57:55.190Z,42.70
2017-08-24T07:00:22.727Z,34.53
2017-08-24T07:02:50.270Z,45.47
2017-08-24T07:05:17.834Z,49.50
2017-08-24T07:07:45.366Z,39.30
2017-08-24T07:10:12.926Z,48.47
2017-08-24T07:12:40.458Z,50.80
2017-08-24T07:15:08.021Z,55.10
2017-08-24T07:17:35.564Z,53.10
2017-08-24T07:20:03.135Z,60.53
2017-08-24T07:22:30.678Z,55.60
2017-08-24T07:24:58.235Z,57.30
2017-08-24T07:27:25.787Z,60.13
2017-08-24T07:29:53.321Z,57.87
2017-08-24T07:32:20.949Z,63.93
2017-08-24T07:34:48.483Z,57.07
2017-08-24T07:37:16.042Z,56.73
2017-08-24T07:39:43.658Z,62.40
2017-08-24T07:42:11.239Z,61.00
2017-08-24T07:44:38.859Z,67.00
2017-08-24T07:47:06.414Z,55.23
2017-08-24T07:49:33.956Z,60.83
2017-08-24T07:52:01.515Z,63.43
2017-08-24T07:54:29.111Z,68.73
2017-08-24T07:56:56.684Z,62.90
2017-08-24T07:59:24.219Z,70.30
2017-08-24T08:01:51.763Z,70.53
2017-08-24T08:04:19.303Z,66.57
2017-08-24T08:06:46.847Z,57.90
2017-08-24T08:09:14.383Z,65.43
2017-08-24T08:11:41.918Z,61.60
2017-08-24T08:14:09.462Z,61.83
2017-08-24T08:16:36.995Z,62.40
2017-08-24T08:19:04.561Z,67.40
2017-08-24T08:21:32.174Z,63.80
2017-08-24T08:23:59.744Z,58.20
2017-08-24T08:26:27.283Z,55.43
2017-08-24T08:31:28.617Z,58.73
2017-08-24T08:33:56.174Z,56.90
2017-08-24T08:36:24.479Z,61.40
2017-08-24T08:38:52.063Z,57.17
2017-08-24T08:41:19.627Z,56.73
2017-08-24T08:43:47.196Z,54.20
2017-08-24T08:46:14.744Z,49.97
2017-08-24T08:48:42.411Z,44.60
2017-08-24T08:51:09.952Z,45.47
2017-08-24T08:53:37.531Z,49.20
2017-08-24T08:56:05.075Z,46.80
2017-08-24T08:58:32.614Z,48.23
2017-08-24T09:01:00.167Z,50.40
2017-08-24T09:03:28.479Z,39.70
2017-08-24T09:05:56.047Z,43.40
2017-08-24T09:08:23.590Z,48.00
2017-08-24T09:10:51.161Z,35.73
2017-08-24T09:13:18.699Z,40.90
2017-08-24T09:15:46.274Z,39.53
2017-08-24T09:18:13.824Z,41.77
2017-08-24T09:20:41.394Z,40.73
2017-08-24T09:23:08.938Z,42.33
2017-08-24T09:25:36.511Z,42.77
2017-08-24T09:28:04.055Z,32.97
2017-08-24T09:30:31.590Z,43.00
2017-08-24T09:32:59.123Z,37.70
2017-08-24T09:35:26.663Z,32.93
2017-08-24T09:37:54.200Z,34.80
2017-08-24T09:40:21.743Z,34.23
2017-08-24T09:42:49.287Z,32.20
2017-08-24T09:45:16.826Z,37.63
2017-08-24T09:47:44.372Z,37.10
2017-08-24T09:50:11.910Z,35.47
2017-08-24T09:52:39.442Z,36.53
2017-08-24T09:55:06.983Z,37.87
2017-08-24T09:57:34.519Z,34.47
2017-08-24T10:00:02.051Z,35.93
2017-08-24T10:02:29.592Z,37.50
2017-08-24T10:04:57.135Z,35.10
2017-08-24T10:07:24.706Z,34.53
2017-08-24T10:09:52.246Z,33.40
2017-08-24T10:12:19.783Z,32.93
2017-08-24T10:14:47.518Z,34.50
2017-08-24T10:17:15.058Z,38.03
2017-08-24T10:19:42.595Z,32.50
2017-08-24T10:22:10.139Z,36.03
2017-08-24T10:24:37.678Z,32.00
2017-08-24T10:27:05.219Z,38.20
2017-08-24T10:29:32.827Z,33.70
2017-08-24T10:32:00.315Z,34.07
2017-08-24T10:34:27.879Z,34.63
2017-08-24T10:36:55.584Z,33.97
2017-08-24T10:39:23.156Z,32.10
2017-08-24T10:41:50.694Z,38.63
2017-08-24T10:44:18.232Z,34.10
2017-08-24T10:46:46.534Z,31.67
2017-08-24T10:49:14.075Z,40.07
2017-08-24T10:51:41.615Z,34.23
2017-08-24T10:54:09.150Z,28.63
2017-08-24T10:56:36.684Z,40.83
2017-08-24T10:59:04.254Z,31.87
2017-08-24T11:01:31.814Z,28.20
2017-08-24T11:03:59.355Z,32.80
2017-08-24T11:06:26.930Z,30.73
2017-08-24T11:08:54.483Z,33.50
2017-08-24T11:11:22.059Z,29.70
2017-08-24T11:13:49.603Z,28.97
2017-08-24T11:16:17.138Z,31.70
2017-08-24T11:18:44.744Z,27.40
2017-08-24T11:21:12.284Z,30.00
2017-08-24T11:23:42.668Z,26.93
2017-08-24T11:26:11.007Z,29.07
2017-08-24T11:28:38.547Z,25.97
2017-08-24T11:31:06.084Z,25.07
2017-08-24T11:33:33.642Z,31.70
2017-08-24T11:36:01.188Z,27.13
2017-08-24T11:38:29.199Z,21.87
2017-08-24T11:40:56.745Z,25.07
2017-08-24T11:43:24.293Z,24.30
2017-08-24T11:45:51.838Z,29.77
2017-08-24T11:48:19.381Z,29.47
2017-08-24T11:50:46.922Z,25.73
2017-08-24T11:53:14.460Z,24.93
2017-08-24T11:55:42.000Z,25.00
2017-08-24T11:58:09.544Z,35.30
2017-08-24T12:00:37.088Z,22.63
2017-08-24T12:03:04.637Z,28.10
2017-08-24T12:05:32.203Z,24.90
2017-08-24T12:07:59.739Z,31.50
2017-08-24T12:10:27.304Z,26.07
2017-08-24T12:12:54.867Z,25.03
2017-08-24T12:15:22.442Z,24.27
2017-08-24T12:17:49.983Z,28.23
2017-08-24T12:20:17.554Z,24.33
2017-08-24T12:22:45.091Z,24.13
2017-08-24T12:25:12.623Z,28.00
2017-08-24T12:27:40.162Z,32.53
2017-08-24T12:30:07.704Z,27.23
2017-08-24T12:32:35.248Z,27.00
2017-08-24T12:35:02.795Z,26.70
2017-08-24T12:37:30.354Z,27.00
2017-08-24T12:39:57.892Z,24.73
2017-08-24T12:42:25.456Z,27.73
2017-08-24T12:44:52.999Z,24.37
2017-08-24T12:47:20.568Z,27.90
2017-08-24T12:49:48.875Z,31.87
2017-08-24T12:52:16.460Z,28.20
2017-08-24T12:54:43.995Z,25.40
2017-08-24T12:57:11.535Z,26.17
2017-08-24T12:59:39.076Z,26.43
2017-08-24T13:02:06.619Z,26.07
2017-08-24T13:04:34.155Z,25.83
2017-08-24T13:07:01.721Z,28.10
2017-08-24T13:09:29.261Z,29.27
2017-08-24T13:11:56.845Z,32.67
2017-08-24T13:14:24.401Z,31.93
2017-08-24T13:16:51.942Z,27.47
2017-08-24T13:19:19.512Z,30.50
2017-08-24T13:21:47.055Z,32.17
2017-08-24T13:24:14.651Z,30.67
2017-08-24T13:26:42.192Z,32.63
2017-08-24T13:29:09.755Z,26.43
2017-08-24T13:31:37.300Z,30.80
2017-08-24T13:34:04.884Z,33.93
2017-08-24T13:36:32.423Z,33.20
2017-08-24T13:38:59.974Z,27.77
2017-08-24T13:41:27.514Z,27.90
2017-08-24T13:43:55.056Z,31.13
2017-08-24T13:46:22.626Z,27.80
2017-08-24T13:48:50.168Z,25.60
2017-08-24T13:51:20.538Z,30.20
2017-08-24T13:53:48.439Z,28.73
2017-08-24T13:56:16.023Z,27.67
2017-08-24T13:58:43.564Z,24.10
2017-08-24T14:01:11.099Z,27.13
2017-08-24T14:03:38.635Z,25.67
2017-08-24T14:06:06.179Z,22.50
2017-08-24T14:08:33.715Z,23.43
2017-08-24T14:11:01.263Z,25.57
2017-08-24T14:13:28.815Z,25.20
2017-08-24T14:15:56.358Z,24.47
2017-08-24T14:18:23.895Z,22.73
2017-08-24T14:20:51.439Z,25.23
2017-08-24T14:23:19.012Z,24.57
2017-08-24T14:25:46.558Z,25.20
2017-08-24T14:28:14.138Z,24.47
2017-08-24T14:30:41.683Z,24.10
2017-08-24T14:33:09.260Z,27.37
2017-08-24T14:35:36.806Z,23.67
2017-08-24T14:38:04.350Z,22.93
2017-08-24T14:40:31.898Z,26.33
2017-08-24T14:42:59.439Z,22.30
2017-08-24T14:45:26.981Z,23.00
2017-08-24T14:47:54.519Z,36.30
2017-08-24T14:50:22.059Z,22.60
2017-08-24T14:52:49.603Z,22.73
2017-08-24T14:55:17.144Z,23.97
2017-08-24T14:57:45.539Z,25.43
2017-08-24T15:00:13.108Z,20.83
2017-08-24T15:02:40.642Z,22.90
2017-08-24T15:05:08.211Z,21.70
2017-08-24T15:07:35.757Z,19.80
2017-08-24T15:10:03.316Z,25.10
2017-08-24T15:12:30.855Z,18.90
2017-08-24T15:14:58.416Z,22.60
2017-08-24T15:17:25.963Z,20.00
2017-08-24T15:19:53.508Z,25.53
2017-08-24T15:22:21.054Z,18.37
2017-08-24T15:24:48.591Z,18.87
2017-08-24T15:27:16.148Z,18.80
2017-08-24T15:29:43.686Z,26.00
2017-08-24T15:32:11.266Z,16.43
2017-08-24T15:34:38.808Z,18.20
2017-08-24T15:37:06.368Z,23.40
2017-08-24T15:39:33.908Z,17.13
2017-08-24T15:42:01.476Z,20.00
2017-08-24T15:44:29.020Z,19.23
2017-08-24T15:46:56.588Z,15.67
2017-08-24T15:49:24.127Z,17.83
2017-08-24T15:51:51.693Z,21.27
2017-08-24T15:54:19.235Z,20.27
2017-08-24T15:56:46.801Z,16.37
2017-08-24T15:59:14.352Z,17.30
2017-08-24T16:01:41.931Z,16.93
2017-08-24T16:04:09.471Z,18.90
2017-08-24T16:06:37.015Z,17.57
2017-08-24T16:09:04.775Z,16.53
2017-08-24T16:11:32.318Z,15.77
2017-08-24T16:13:59.891Z,17.07
2017-08-24T16:16:27.578Z,19.50
2017-08-24T16:18:55.219Z,21.27
2017-08-24T16:21:22.831Z,18.07
2017-08-24T16:23:50.425Z,16.83
2017-08-24T16:26:18.118Z,23.03
2017-08-24T16:28:45.685Z,20.53
2017-08-24T16:31:13.233Z,20.33
2017-08-24T16:33:40.816Z,19.10
2017-08-24T16:36:08.362Z,20.33
2017-08-24T16:38:35.899Z,19.40
2017-08-24T16:41:03.543Z,18.70
2017-08-24T16:43:31.098Z,19.37
2017-08-24T16:45:58.650Z,22.30
2017-08-24T16:48:26.188Z,19.63
2017-08-24T16:50:53.734Z,22.43
2017-08-24T16:53:21.280Z,20.17
2017-08-24T16:55:48.818Z,20.00
2017-08-24T16:58:16.351Z,19.07
2017-08-24T17:00:43.975Z,19.33
2017-08-24T17:03:11.514Z,22.57
2017-08-24T17:05:39.042Z,23.20
2017-08-24T17:08:06.575Z,21.97
2017-08-24T17:10:34.111Z,22.07
2017-08-24T17:13:01.647Z,18.53
2017-08-24T17:15:29.191Z,22.27
2017-08-24T17:17:56.734Z,20.93
2017-08-24T17:20:24.265Z,18.33
2017-08-24T17:22:51.806Z,18.80
2017-08-24T17:25:19.343Z,20.57
2017-08-24T17:27:47.640Z,22.73
2017-08-24T17:30:15.176Z,18.20
2017-08-24T17:32:43.470Z,20.37
2017-08-24T17:35:11.019Z,22.23
2017-08-24T17:37:38.599Z,28.87
2017-08-24T17:40:06.131Z,21.33
2017-08-24T17:42:33.667Z,95.20
2017-08-24T17:45:01.203Z,24.40
2017-08-24T17:47:28.731Z,25.97
2017-08-24T17:49:56.259Z,26.93
2017-08-24T17:52:23.795Z,44.53
2017-08-24T17:54:51.331Z,33.03
2017-08-24T17:57:19.638Z,28.63
2017-08-24T17:59:47.190Z,25.60
2017-08-24T18:02:14.719Z,27.73
2017-08-24T18:04:42.257Z,41.90
2017-08-24T18:07:09.786Z,19.93
2017-08-24T18:09:37.334Z,42.67
2017-08-24T18:12:04.871Z,34.90
2017-08-24T18:14:32.437Z,36.27
2017-08-24T18:16:59.991Z,30.37
2017-08-24T18:19:27.527Z,37.97
2017-08-24T18:21:55.063Z,24.00
2017-08-24T18:24:22.603Z,28.00
2017-08-24T18:26:50.135Z,26.40
2017-08-24T18:29:17.672Z,22.80
2017-08-24T18:31:45.208Z,22.70
2017-08-24T18:34:12.748Z,30.33
2017-08-24T18:36:40.328Z,31.60
2017-08-24T18:39:07.880Z,26.97
2017-08-24T18:41:35.415Z,22.80
2017-08-24T18:44:02.954Z,27.27
2017-08-24T18:46:30.491Z,24.03
2017-08-24T18:48:58.033Z,19.47
2017-08-24T18:51:25.558Z,26.80
2017-08-24T18:53:53.094Z,23.07
2017-08-24T18:56:21.423Z,21.40
2017-08-24T18:58:48.991Z,23.47
2017-08-24T19:01:16.533Z,23.63
2017-08-24T19:03:44.095Z,23.53
2017-08-24T19:06:11.639Z,20.43
2017-08-24T19:08:39.214Z,24.70
2017-08-24T19:11:06.779Z,22.90
2017-08-24T19:13:34.320Z,33.30
2017-08-24T19:16:01.856Z,26.27
2017-08-24T19:18:30.163Z,28.00
2017-08-24T19:20:57.708Z,32.50
2017-08-24T19:23:25.261Z,32.80
2017-08-24T19:25:52.799Z,35.87
2017-08-24T19:28:20.369Z,28.77
2017-08-24T19:30:47.942Z,28.60
2017-08-24T19:33:16.238Z,29.53
2017-08-24T19:35:43.804Z,30.83
2017-08-24T19:38:11.346Z,25.27
2017-08-24T19:40:39.692Z,29.40
2017-08-24T19:43:07.235Z,31.13
2017-08-24T19:45:34.776Z,28.40
2017-08-24T19:48:02.315Z,25.37
2017-08-24T19:50:29.850Z,25.37
2017-08-24T19:52:58.171Z,26.93
2017-08-24T19:55:25.714Z,32.13
2017-08-24T19:57:53.251Z,28.70
2017-08-24T20:00:20.794Z,29.00
2017-08-24T20:02:48.335Z,32.47
2017-08-24T20:05:15.878Z,28.60
2017-08-24T20:07:43.410Z,30.63
2017-08-24T20:10:11.721Z,34.13
2017-08-24T20:12:39.262Z,27.90
2017-08-24T20:15:06.833Z,29.73
2017-08-24T20:17:34.427Z,31.33
2017-08-24T20:20:01.963Z,36.50
2017-08-24T20:22:29.520Z,40.40
2017-08-24T20:24:57.054Z,28.47
2017-08-24T20:27:24.639Z,36.23
2017-08-24T20:29:52.175Z,33.13
2017-08-24T20:32:19.707Z,36.40
2017-08-24T20:34:47.240Z,32.50
2017-08-24T20:37:14.774Z,29.03
2017-08-24T20:39:42.302Z,31.77
2017-08-24T20:42:09.835Z,30.63
2017-08-24T20:44:37.367Z,38.20
2017-08-24T20:47:04.902Z,31.77
2017-08-24T20:49:32.466Z,30.97
2017-08-24T20:52:00.004Z,30.70
2017-08-24T20:54:27.578Z,31.47
2017-08-24T20:56:55.120Z,28.87
2017-08-24T20:59:22.760Z,30.80
2017-08-24T21:01:50.307Z,28.07
2017-08-24T21:04:17.845Z,33.03
2017-08-24T21:06:45.430Z,28.53
2017-08-24T21:09:12.991Z,30.53
2017-08-24T21:11:40.547Z,30.20
2017-08-24T21:14:08.115Z,26.77
2017-08-24T21:16:36.451Z,32.43
2017-08-24T21:19:04.752Z,28.37
2017-08-24T21:21:32.310Z,25.10
2017-08-24T21:23:59.849Z,31.93
2017-08-24T21:26:27.475Z,28.03
2017-08-24T21:28:55.031Z,29.23
2017-08-24T21:31:22.590Z,27.67
2017-08-24T21:33:50.147Z,27.90
2017-08-24T21:36:17.803Z,26.40
2017-08-24T21:38:45.343Z,27.97
2017-08-24T21:41:12.929Z,30.90
2017-08-24T21:43:40.466Z,31.37
2017-08-24T21:46:08.007Z,28.57
2017-08-24T21:48:36.311Z,29.97
2017-08-24T21:51:03.852Z,29.80
2017-08-24T21:53:31.419Z,27.77
2017-08-24T21:55:58.959Z,30.37
2017-08-24T21:58:27.287Z,31.47
2017-08-24T22:00:54.832Z,35.13
2017-08-24T22:03:22.395Z,31.40
2017-08-24T22:05:49.937Z,30.63
2017-08-24T22:08:17.498Z,31.73
2017-08-24T22:10:45.044Z,35.50
2017-08-24T22:13:12.647Z,37.73
2017-08-24T22:15:40.186Z,33.40
2017-08-24T22:18:07.722Z,32.43
2017-08-24T22:20:36.024Z,31.17
2017-08-24T22:23:03.562Z,29.90
2017-08-24T22:25:31.095Z,28.80
2017-08-24T22:27:58.635Z,29.87
2017-08-24T22:30:26.194Z,30.47
2017-08-24T22:32:53.732Z,27.30
2017-08-24T22:35:21.286Z,31.27
2017-08-24T22:37:48.863Z,29.10
2017-08-24T22:40:16.427Z,37.33
2017-08-24T22:42:43.964Z,35.17
2017-08-24T22:45:11.543Z,33.43
2017-08-24T22:47:39.079Z,34.83
2017-08-24T22:50:06.618Z,29.60
2017-08-24T22:52:34.180Z,31.40
2017-08-24T22:55:07.265Z,30.50
2017-08-24T23:10:56.956Z,31.00
2017-08-24T23:13:24.494Z,27.20
2017-08-24T23:15:52.026Z,31.20
2017-08-24T23:18:19.558Z,29.83
2017-08-24T23:20:47.092Z,28.80
2017-08-24T23:23:14.626Z,28.20
2017-08-24T23:25:42.168Z,32.13
2017-08-24T23:28:09.720Z,28.07
2017-08-24T23:30:37.251Z,29.10
2017-08-24T23:33:04.874Z,26.43
2017-08-24T23:35:32.426Z,31.53
2017-08-24T23:37:59.955Z,43.03
2017-08-24T23:40:28.255Z,36.90
2017-08-24T23:42:55.827Z,28.53
2017-08-24T23:45:23.363Z,32.93
2017-08-24T23:47:50.899Z,31.70
2017-08-24T23:50:18.435Z,35.30
2017-08-24T23:52:45.967Z,29.60
2017-08-24T23:55:13.502Z,28.63
2017-08-24T23:57:41.046Z,24.27
